createdAt,value
2023-04-18T00:00:56.429Z,12.39
2023-04-18T00:03:59.991Z,12.36
2023-04-18T00:07:03.560Z,12.23
2023-04-18T00:10:08.882Z,12.18
2023-04-18T00:13:12.241Z,12.06
2023-04-18T00:16:16.142Z,11.98
2023-04-18T00:19:20.227Z,11.93
2023-04-18T00:22:23.648Z,11.92
2023-04-18T00:25:26.838Z,11.92
2023-04-18T00:28:30.089Z,11.84
2023-04-18T00:31:33.059Z,11.90
2023-04-18T00:34:36.382Z,11.85
2023-04-18T00:37:39.300Z,11.81
2023-04-18T00:40:42.585Z,11.76
2023-04-18T00:43:45.820Z,11.70
2023-04-18T00:46:49.125Z,11.74
2023-04-18T00:49:52.076Z,11.75
2023-04-18T00:52:56.944Z,11.72
2023-04-18T00:56:00.067Z,11.53
2023-04-18T00:59:04.253Z,11.26
2023-04-18T01:02:07.317Z,11.32
2023-04-18T01:05:11.053Z,11.25
2023-04-18T01:08:14.564Z,11.36
2023-04-18T01:11:17.960Z,11.39
2023-04-18T01:14:24.128Z,11.28
2023-04-18T01:17:28.643Z,11.15
2023-04-18T01:20:31.662Z,11.06
2023-04-18T01:23:34.979Z,11.19
2023-04-18T01:26:38.430Z,11.28
2023-04-18T01:29:41.638Z,11.17
2023-04-18T01:32:45.278Z,11.22
2023-04-18T01:35:48.554Z,11.17
2023-04-18T01:38:51.519Z,11.19
2023-04-18T01:41:55.889Z,11.18
2023-04-18T01:44:58.924Z,11.15
2023-04-18T01:48:03.444Z,11.20
2023-04-18T01:51:06.702Z,11.18
2023-04-18T01:54:10.103Z,11.02
2023-04-18T01:57:13.063Z,10.95
2023-04-18T02:00:16.873Z,11.05
2023-04-18T02:03:19.857Z,11.10
2023-04-18T02:06:23.154Z,11.06
2023-04-18T02:09:26.070Z,11.01
2023-04-18T02:12:29.245Z,11.07
2023-04-18T02:15:32.439Z,11.14
2023-04-18T02:18:35.707Z,11.10
2023-04-18T02:21:38.697Z,11.04
2023-04-18T02:24:41.952Z,11.05
2023-04-18T02:27:45.183Z,11.08
2023-04-18T02:30:48.366Z,11.09
2023-04-18T02:33:51.987Z,10.97
2023-04-18T02:36:57.761Z,11.03
2023-04-18T02:40:00.674Z,11.05
2023-04-18T02:43:05.376Z,10.98
2023-04-18T02:46:08.663Z,11.00
2023-04-18T02:49:12.248Z,10.95
2023-04-18T02:52:15.502Z,10.89
2023-04-18T02:55:19.175Z,10.90
2023-04-18T02:58:22.860Z,10.85
2023-04-18T03:01:28.238Z,10.83
2023-04-18T03:04:31.093Z,10.82
2023-04-18T03:07:35.065Z,10.81
2023-04-18T03:10:40.240Z,10.75
2023-04-18T03:13:44.020Z,10.71
2023-04-18T03:16:48.988Z,10.67
2023-04-18T03:19:54.202Z,10.73
2023-04-18T03:22:57.118Z,10.71
2023-04-18T03:26:01.975Z,10.65
2023-04-18T03:29:06.705Z,10.66
2023-04-18T03:32:10.190Z,10.63
2023-04-18T03:35:13.181Z,10.63
2023-04-18T03:38:17.274Z,10.57
2023-04-18T03:41:20.395Z,10.53
2023-04-18T03:44:23.757Z,10.51
2023-04-18T03:47:26.883Z,10.51
2023-04-18T03:50:30.820Z,10.49
2023-04-18T03:53:34.396Z,10.48
2023-04-18T03:56:38.160Z,10.49
2023-04-18T03:59:41.791Z,10.45
2023-04-18T04:02:45.550Z,10.47
2023-04-18T04:05:52.500Z,10.49
2023-04-18T04:08:56.198Z,10.45
2023-04-18T04:11:59.867Z,10.48
2023-04-18T04:15:04.676Z,10.54
2023-04-18T04:18:10.406Z,10.55
2023-04-18T04:21:14.063Z,10.59
2023-04-18T04:24:17.896Z,10.47
2023-04-18T04:27:22.796Z,10.63
2023-04-18T04:30:26.394Z,10.67
2023-04-18T04:33:29.461Z,10.73
2023-04-18T04:36:34.993Z,10.75
2023-04-18T04:39:38.308Z,10.76
2023-04-18T04:42:43.819Z,10.82
2023-04-18T04:45:52.657Z,10.83
2023-04-18T04:48:57.745Z,10.87
2023-04-18T04:52:02.955Z,10.87
2023-04-18T04:55:07.214Z,10.92
2023-04-18T04:58:10.426Z,10.97
2023-04-18T05:01:14.158Z,10.99
2023-04-18T05:04:17.342Z,11.06
2023-04-18T05:07:20.870Z,11.04
2023-04-18T05:10:24.280Z,10.97
2023-04-18T05:13:27.600Z,10.88
2023-04-18T05:16:30.533Z,10.93
2023-04-18T05:19:33.817Z,10.97
2023-04-18T05:22:37.957Z,11.05
2023-04-18T05:25:41.247Z,11.13
2023-04-18T05:28:44.497Z,11.13
2023-04-18T05:31:48.026Z,11.07
2023-04-18T05:34:51.397Z,10.86
2023-04-18T05:37:54.569Z,10.76
2023-04-18T05:41:00.402Z,11.04
2023-04-18T05:44:05.691Z,10.92
2023-04-18T05:47:08.919Z,11.09
2023-04-18T05:50:12.076Z,11.19
2023-04-18T05:53:15.334Z,11.34
2023-04-18T05:56:18.571Z,11.41
2023-04-18T05:59:21.654Z,11.54
2023-04-18T06:02:24.944Z,11.21
2023-04-18T06:05:28.752Z,11.19
2023-04-18T06:08:31.689Z,11.11
2023-04-18T06:11:36.465Z,11.38
2023-04-18T06:14:39.386Z,11.19
2023-04-18T06:17:44.807Z,11.57
2023-04-18T06:20:48.917Z,11.81
2023-04-18T06:23:51.960Z,11.87
2023-04-18T06:26:55.425Z,11.72
2023-04-18T06:29:58.764Z,11.79
2023-04-18T06:33:01.803Z,11.99
2023-04-18T06:36:05.796Z,11.74
2023-04-18T06:39:08.796Z,11.58
2023-04-18T06:42:11.952Z,11.82
2023-04-18T06:45:20.189Z,11.92
2023-04-18T06:48:23.426Z,12.06
2023-04-18T06:51:27.464Z,12.12
2023-04-18T06:54:30.709Z,11.81
2023-04-18T06:57:33.548Z,12.13
2023-04-18T07:00:36.871Z,11.86
2023-04-18T07:03:39.870Z,11.61
2023-04-18T07:06:43.512Z,12.03
2023-04-18T07:09:46.632Z,11.97
2023-04-18T07:12:49.785Z,12.10
2023-04-18T07:15:52.669Z,12.36
2023-04-18T07:18:56.017Z,12.59
2023-04-18T07:21:58.997Z,12.97
2023-04-18T07:25:02.160Z,12.87
2023-04-18T07:28:05.155Z,12.68
2023-04-18T07:31:11.819Z,13.15
2023-04-18T07:34:15.233Z,13.38
2023-04-18T07:37:19.194Z,13.65
2023-04-18T07:40:22.472Z,13.83
2023-04-18T07:43:26.313Z,13.79
2023-04-18T07:46:32.497Z,14.33
2023-04-18T07:49:35.883Z,14.55
2023-04-18T07:52:39.534Z,14.65
2023-04-18T07:55:43.568Z,14.41
2023-04-18T07:58:47.606Z,14.25
2023-04-18T08:01:50.819Z,14.72
2023-04-18T08:04:56.224Z,14.50
2023-04-18T08:07:59.424Z,14.34
2023-04-18T08:11:02.861Z,14.10
2023-04-18T08:14:05.935Z,13.91
2023-04-18T08:17:09.130Z,14.02
2023-04-18T08:20:13.170Z,13.89
2023-04-18T08:23:16.335Z,13.94
2023-04-18T08:26:19.875Z,14.49
2023-04-18T08:29:23.038Z,14.49
2023-04-18T08:32:26.245Z,15.10
2023-04-18T08:35:29.531Z,15.35
2023-04-18T08:38:33.897Z,15.74
2023-04-18T08:41:39.730Z,15.51
2023-04-18T08:44:43.158Z,16.05
2023-04-18T08:47:47.179Z,15.32
2023-04-18T08:50:49.952Z,15.81
2023-04-18T08:53:53.465Z,16.05
2023-04-18T08:57:26.944Z,16.01
2023-04-18T09:00:30.619Z,15.36
2023-04-18T09:03:42.677Z,16.66
2023-04-18T09:06:53.134Z,16.54
2023-04-18T09:09:57.820Z,16.78
2023-04-18T09:13:03.772Z,16.93
2023-04-18T09:16:08.095Z,16.78
2023-04-18T09:19:18.999Z,17.09
2023-04-18T09:22:22.330Z,16.23
2023-04-18T09:25:30.615Z,16.31
2023-04-18T09:28:35.158Z,16.44
2023-04-18T09:31:52.969Z,16.86
2023-04-18T09:35:04.304Z,16.31
2023-04-18T09:38:08.119Z,16.96
2023-04-18T09:41:12.398Z,16.94
2023-04-18T09:44:17.240Z,17.10
2023-04-18T09:47:20.660Z,16.85
2023-04-18T09:50:23.998Z,17.02
2023-04-18T09:53:27.093Z,16.96
2023-04-18T09:56:32.105Z,17.21
2023-04-18T09:59:47.688Z,17.45
2023-04-18T10:02:58.101Z,17.62
2023-04-18T10:06:01.494Z,17.89
2023-04-18T10:09:04.862Z,18.31
2023-04-18T10:12:08.656Z,18.45
2023-04-18T10:15:11.996Z,18.63
2023-04-18T10:18:19.130Z,18.66
2023-04-18T10:21:22.295Z,18.67
2023-04-18T10:24:50.265Z,18.48
2023-04-18T10:27:58.460Z,18.69
2023-04-18T10:31:05.792Z,19.00
2023-04-18T10:34:08.798Z,19.64
2023-04-18T10:37:13.171Z,19.06
2023-04-18T10:40:16.093Z,19.52
2023-04-18T10:43:19.519Z,19.48
2023-04-18T10:46:31.869Z,18.59
2023-04-18T10:49:39.196Z,19.08
2023-04-18T10:52:42.692Z,18.88
2023-04-18T10:55:47.667Z,19.59
2023-04-18T10:58:51.489Z,19.59
2023-04-18T11:02:23.245Z,19.72
2023-04-18T11:05:28.685Z,19.94
2023-04-18T11:08:33.187Z,18.98
2023-04-18T11:11:36.120Z,20.09
2023-04-18T11:14:48.410Z,19.70
2023-04-18T11:17:59.901Z,20.06
2023-04-18T11:21:03.981Z,19.80
2023-04-18T11:24:06.933Z,20.53
2023-04-18T11:27:12.651Z,19.90
2023-04-18T11:30:17.013Z,20.08
2023-04-18T11:33:20.352Z,20.23
2023-04-18T11:36:23.683Z,20.82
2023-04-18T11:39:26.831Z,20.84
2023-04-18T11:42:33.131Z,21.81
2023-04-18T11:45:36.399Z,22.23
2023-04-18T11:48:45.482Z,22.19
2023-04-18T11:51:48.668Z,23.42
2023-04-18T11:54:51.957Z,23.87
2023-04-18T11:57:56.699Z,23.64
2023-04-18T12:01:00.989Z,22.93
2023-04-18T12:04:06.782Z,21.15
2023-04-18T12:07:09.881Z,20.49
2023-04-18T12:10:22.385Z,19.94
2023-04-18T12:13:27.248Z,20.01
2023-04-18T12:16:30.908Z,18.31
2023-04-18T12:19:34.412Z,17.83
2023-04-18T12:22:52.461Z,18.19
2023-04-18T12:26:12.232Z,17.98
2023-04-18T12:29:15.771Z,17.85
2023-04-18T12:32:18.915Z,17.65
2023-04-18T12:35:23.163Z,16.94
2023-04-18T12:38:26.168Z,17.04
2023-04-18T12:41:29.379Z,16.90
2023-04-18T12:44:32.314Z,17.02
2023-04-18T12:47:37.167Z,16.46
2023-04-18T12:50:40.088Z,16.60
2023-04-18T12:53:44.641Z,16.89
2023-04-18T12:56:47.838Z,16.86
2023-04-18T12:59:51.064Z,16.91
2023-04-18T13:02:54.151Z,16.60
2023-04-18T13:05:57.557Z,16.75
2023-04-18T13:09:00.543Z,17.01
2023-04-18T13:12:03.883Z,17.37
2023-04-18T13:15:10.635Z,18.47
2023-04-18T13:18:13.846Z,20.10
2023-04-18T13:21:16.861Z,22.25
2023-04-18T13:24:20.141Z,21.88
2023-04-18T13:27:23.010Z,22.46
2023-04-18T13:30:26.308Z,23.20
2023-04-18T13:33:30.642Z,22.22
2023-04-18T13:36:36.270Z,21.31
2023-04-18T13:39:40.403Z,23.02
2023-04-18T13:42:43.769Z,23.53
2023-04-18T13:45:46.671Z,23.96
2023-04-18T13:48:50.082Z,23.42
2023-04-18T13:51:59.026Z,24.21
2023-04-18T13:55:02.241Z,23.24
2023-04-18T13:58:05.163Z,22.57
2023-04-18T14:01:08.661Z,24.22
2023-04-18T14:04:11.885Z,22.45
2023-04-18T14:07:15.107Z,23.05
2023-04-18T14:10:18.339Z,22.68
2023-04-18T14:13:21.325Z,21.40
2023-04-18T14:16:24.540Z,22.71
2023-04-18T14:19:27.529Z,24.03
2023-04-18T14:22:31.244Z,22.62
2023-04-18T14:25:35.460Z,21.96
2023-04-18T14:28:38.793Z,20.41
2023-04-18T14:31:42.848Z,20.20
2023-04-18T14:34:46.500Z,19.34
2023-04-18T14:37:49.374Z,21.70
2023-04-18T14:40:52.532Z,19.89
2023-04-18T14:43:55.359Z,19.29
2023-04-18T14:46:58.567Z,20.21
2023-04-18T14:50:01.532Z,22.50
2023-04-18T14:53:06.188Z,23.69
2023-04-18T14:56:09.143Z,23.77
2023-04-18T14:59:16.444Z,24.55
2023-04-18T15:02:20.184Z,22.35
2023-04-18T15:05:26.676Z,20.61
2023-04-18T15:08:32.698Z,19.74
2023-04-18T15:11:36.136Z,19.58
2023-04-18T15:14:39.680Z,18.72
2023-04-18T15:17:42.576Z,18.41
2023-04-18T15:20:45.969Z,18.59
2023-04-18T15:23:49.213Z,18.45
2023-04-18T15:26:53.076Z,17.99
2023-04-18T15:29:56.705Z,18.27
2023-04-18T15:32:59.707Z,18.16
2023-04-18T15:36:05.879Z,18.01
2023-04-18T15:39:09.298Z,18.68
2023-04-18T15:42:12.493Z,18.33
2023-04-18T15:45:15.693Z,19.09
2023-04-18T15:48:18.858Z,19.63
2023-04-18T15:51:22.290Z,21.70
2023-04-18T15:54:25.612Z,21.38
2023-04-18T15:57:29.889Z,21.94
2023-04-18T16:00:32.925Z,20.04
2023-04-18T16:03:36.393Z,19.71
2023-04-18T16:06:40.632Z,18.78
2023-04-18T16:09:45.625Z,17.58
2023-04-18T16:12:48.585Z,17.68
2023-04-18T16:15:52.660Z,17.76
2023-04-18T16:18:55.532Z,17.30
2023-04-18T16:21:58.861Z,17.83
2023-04-18T16:25:01.987Z,17.80
2023-04-18T16:28:05.335Z,17.63
2023-04-18T16:31:08.138Z,17.63
2023-04-18T16:34:12.516Z,17.57
2023-04-18T16:37:16.143Z,17.59
2023-04-18T16:40:21.964Z,17.45
2023-04-18T16:43:27.057Z,17.29
2023-04-18T16:46:32.400Z,17.38
2023-04-18T16:49:35.855Z,17.26
2023-04-18T16:52:39.881Z,17.26
2023-04-18T16:55:43.265Z,17.11
2023-04-18T16:58:46.956Z,16.97
2023-04-18T17:01:50.421Z,16.85
2023-04-18T17:04:53.837Z,16.52
2023-04-18T17:07:56.871Z,16.58
2023-04-18T17:11:02.127Z,16.36
2023-04-18T17:14:05.861Z,16.39
2023-04-18T17:17:09.548Z,16.16
2023-04-18T17:20:12.617Z,16.20
2023-04-18T17:23:15.807Z,16.31
2023-04-18T17:26:19.038Z,16.24
2023-04-18T17:29:23.830Z,16.27
2023-04-18T17:32:29.638Z,16.20
2023-04-18T17:35:35.620Z,15.97
2023-04-18T17:38:41.136Z,15.74
2023-04-18T17:41:45.393Z,15.68
2023-04-18T17:44:48.662Z,15.69
2023-04-18T17:47:52.359Z,15.74
2023-04-18T17:50:55.980Z,15.48
2023-04-18T17:54:00.886Z,15.16
2023-04-18T17:57:08.148Z,14.89
2023-04-18T18:00:14.354Z,14.89
2023-04-18T18:03:20.717Z,14.85
2023-04-18T18:06:24.190Z,14.81
2023-04-18T18:09:27.721Z,14.74
2023-04-18T18:12:35.859Z,14.68
2023-04-18T18:15:40.765Z,14.64
2023-04-18T18:18:47.079Z,14.50
2023-04-18T18:21:51.033Z,14.42
2023-04-18T18:24:54.750Z,14.31
2023-04-18T18:28:02.815Z,14.02
2023-04-18T18:31:06.132Z,13.72
2023-04-18T18:34:10.858Z,13.68
2023-04-18T18:37:14.791Z,13.66
2023-04-18T18:40:19.820Z,13.54
2023-04-18T18:43:26.968Z,13.37
2023-04-18T18:46:31.520Z,12.98
2023-04-18T18:49:37.088Z,12.99
2023-04-18T18:52:43.718Z,12.95
2023-04-18T18:55:48.519Z,12.95
2023-04-18T18:58:55.640Z,12.84
2023-04-18T19:02:00.487Z,12.85
2023-04-18T19:05:05.025Z,12.77
2023-04-18T19:08:10.083Z,12.80
2023-04-18T19:11:16.375Z,12.79
2023-04-18T19:14:22.070Z,12.86
2023-04-18T19:17:27.875Z,12.86
2023-04-18T19:20:33.176Z,12.87
2023-04-18T19:23:39.672Z,12.84
2023-04-18T19:26:44.725Z,12.94
2023-04-18T19:29:50.162Z,13.04
2023-04-18T19:32:55.935Z,13.02
2023-04-18T19:36:02.748Z,13.03
2023-04-18T19:39:07.669Z,13.08
2023-04-18T19:42:14.777Z,13.03
2023-04-18T19:45:22.123Z,13.02
2023-04-18T19:48:27.978Z,13.12
2023-04-18T19:51:31.934Z,13.20
2023-04-18T19:54:36.243Z,13.40
2023-04-18T19:57:42.056Z,12.98
2023-04-18T20:00:46.490Z,13.16
2023-04-18T20:03:53.284Z,13.14
2023-04-18T20:06:57.945Z,13.13
2023-04-18T20:10:04.405Z,13.14
2023-04-18T20:13:09.534Z,13.27
2023-04-18T20:16:15.986Z,13.37
2023-04-18T20:19:20.347Z,13.49
2023-04-18T20:22:28.429Z,13.62
2023-04-18T20:25:34.422Z,13.44
2023-04-18T20:28:38.606Z,13.54
2023-04-18T20:31:43.005Z,13.58
2023-04-18T20:34:48.422Z,13.58
2023-04-18T20:37:51.766Z,13.60
2023-04-18T20:40:55.994Z,13.60
2023-04-18T20:44:00.532Z,13.49
2023-04-18T20:47:04.224Z,13.47
2023-04-18T20:50:08.404Z,13.45
2023-04-18T20:53:11.905Z,13.44
2023-04-18T20:56:15.024Z,13.29
2023-04-18T20:59:19.655Z,13.13
2023-04-18T21:02:22.821Z,12.97
2023-04-18T21:05:28.919Z,12.94
2023-04-18T21:08:31.988Z,12.67
2023-04-18T21:11:35.148Z,12.46
2023-04-18T21:14:37.945Z,12.34
2023-04-18T21:17:41.104Z,12.18
2023-04-18T21:20:44.010Z,12.16
2023-04-18T21:23:47.190Z,12.01
2023-04-18T21:26:50.033Z,11.95
2023-04-18T21:29:54.012Z,11.94
2023-04-18T21:32:57.058Z,11.85
2023-04-18T21:36:00.311Z,11.86
2023-04-18T21:39:04.169Z,11.82
2023-04-18T21:42:07.412Z,11.62
2023-04-18T21:45:11.083Z,11.62
2023-04-18T21:48:14.264Z,11.61
2023-04-18T21:51:17.565Z,11.61
2023-04-18T21:54:21.207Z,11.57
2023-04-18T21:57:24.200Z,11.56
2023-04-18T22:00:27.828Z,11.46
2023-04-18T22:03:34.501Z,11.51
2023-04-18T22:06:37.593Z,11.51
2023-04-18T22:09:40.914Z,11.48
2023-04-18T22:12:44.004Z,11.50
2023-04-18T22:15:48.325Z,11.49
2023-04-18T22:18:52.433Z,11.49
2023-04-18T22:21:56.334Z,11.50
2023-04-18T22:24:59.426Z,11.44
2023-04-18T22:28:03.160Z,11.47
2023-04-18T22:31:06.317Z,11.43
2023-04-18T22:34:09.711Z,11.39
2023-04-18T22:37:12.567Z,11.39
2023-04-18T22:40:16.624Z,11.34
2023-04-18T22:43:23.023Z,11.11
2023-04-18T22:46:27.460Z,11.02
2023-04-18T22:49:30.546Z,10.93
2023-04-18T22:52:34.464Z,10.88
2023-04-18T22:55:41.554Z,10.82
2023-04-18T22:58:44.741Z,10.86
2023-04-18T23:01:47.655Z,10.77
2023-04-18T23:04:51.156Z,10.68
2023-04-18T23:07:54.366Z,10.68
2023-04-18T23:10:58.015Z,10.57
2023-04-18T23:14:00.940Z,10.53
2023-04-18T23:17:04.270Z,10.49
2023-04-18T23:20:07.763Z,10.43
2023-04-18T23:23:11.336Z,10.39
2023-04-18T23:26:14.851Z,10.39
2023-04-18T23:29:18.232Z,10.38
2023-04-18T23:32:21.107Z,10.37
2023-04-18T23:35:24.565Z,10.35
2023-04-18T23:38:27.907Z,10.31
2023-04-18T23:42:05.325Z,10.32
2023-04-18T23:45:28.194Z,10.27
2023-04-18T23:48:31.491Z,10.25
2023-04-18T23:51:34.630Z,10.24
2023-04-18T23:54:37.988Z,10.25
2023-04-18T23:57:40.928Z,10.30
